sensor_id;sensor_type;location;lat;lon;timestamp;pressure;altitude;pressure_sealevel;temperature;humidity
71938;BME280;59810;48.800;9.086;2023-03-14T00:00:13;96017.59;;;9.09;100.00
71938;BME280;59810;48.800;9.086;2023-03-14T00:02:41;96003.84;;;9.10;100.00
71938;BME280;59810;48.800;9.086;2023-03-14T00:05:08;96002.50;;;9.08;100.00
71938;BME280;59810;48.800;9.086;2023-03-14T00:07:37;96036.72;;;9.07;100.00
71938;BME280;59810;48.800;9.086;2023-03-14T00:10:08;96017.06;;;9.12;100.00
71938;BME280;59810;48.800;9.086;2023-03-14T00:12:34;96013.81;;;9.10;100.00
71938;BME280;59810;48.800;9.086;2023-03-14T00:15:00;96005.22;;;9.08;100.00
71938;BME280;59810;48.800;9.086;2023-03-14T00:17:27;96005.22;;;9.08;100.00
71938;BME280;59810;48.800;9.086;2023-03-14T00:19:55;95994.16;;;9.09;100.00
71938;BME280;59810;48.800;9.086;2023-03-14T00:22:23;95998.22;;;9.07;100.00
71938;BME280;59810;48.800;9.086;2023-03-14T00:24:50;95995.25;;;9.08;100.00
71938;BME280;59810;48.800;9.086;2023-03-14T00:27:15;95989.31;;;9.11;99.91
71938;BME280;59810;48.800;9.086;2023-03-14T00:29:42;95996.31;;;9.12;100.00
71938;BME280;59810;48.800;9.086;2023-03-14T00:32:11;96003.78;;;9.20;100.00
71938;BME280;59810;48.800;9.086;2023-03-14T00:34:39;96000.28;;;9.20;99.63
71938;BME280;59810;48.800;9.086;2023-03-14T00:37:06;96005.41;;;9.21;99.55
71938;BME280;59810;48.800;9.086;2023-03-14T00:39:34;95994.91;;;9.20;98.33
71938;BME280;59810;48.800;9.086;2023-03-14T00:42:00;96007.81;;;9.23;98.75
71938;BME280;59810;48.800;9.086;2023-03-14T00:44:25;95998.63;;;9.24;97.84
71938;BME280;59810;48.800;9.086;2023-03-14T00:46:53;95991.66;;;9.23;97.78
71938;BME280;59810;48.800;9.086;2023-03-14T00:49:19;96004.03;;;9.24;98.17
71938;BME280;59810;48.800;9.086;2023-03-14T00:51:44;96001.56;;;9.27;98.08
71938;BME280;59810;48.800;9.086;2023-03-14T00:54:12;96012.34;;;9.27;97.63
71938;BME280;59810;48.800;9.086;2023-03-14T00:56:40;96006.69;;;9.29;97.36
71938;BME280;59810;48.800;9.086;2023-03-14T00:59:05;96010.69;;;9.31;96.57
71938;BME280;59810;48.800;9.086;2023-03-14T01:01:31;96001.00;;;9.30;96.76
71938;BME280;59810;48.800;9.086;2023-03-14T01:03:56;96022.56;;;9.30;97.14
71938;BME280;59810;48.800;9.086;2023-03-14T01:06:27;96024.91;;;9.37;96.41
71938;BME280;59810;48.800;9.086;2023-03-14T01:08:56;96022.00;;;9.33;96.11
71938;BME280;59810;48.800;9.086;2023-03-14T01:11:24;96034.09;;;9.36;95.62
71938;BME280;59810;48.800;9.086;2023-03-14T01:13:53;96036.19;;;9.44;95.57
71938;BME280;59810;48.800;9.086;2023-03-14T01:16:23;96015.72;;;9.43;96.53
71938;BME280;59810;48.800;9.086;2023-03-14T01:18:49;96012.25;;;9.38;96.00
71938;BME280;59810;48.800;9.086;2023-03-14T01:21:27;96013.34;;;9.36;96.64
71938;BME280;59810;48.800;9.086;2023-03-14T01:23:56;96005.31;;;9.31;97.03
71938;BME280;59810;48.800;9.086;2023-03-14T01:26:24;95999.13;;;9.31;97.12
71938;BME280;59810;48.800;9.086;2023-03-14T01:28:51;95985.41;;;9.27;96.63
71938;BME280;59810;48.800;9.086;2023-03-14T01:31:18;95974.31;;;9.34;95.63
71938;BME280;59810;48.800;9.086;2023-03-14T01:33:46;95963.50;;;9.39;94.30
71938;BME280;59810;48.800;9.086;2023-03-14T01:36:16;95964.28;;;9.40;94.83
71938;BME280;59810;48.800;9.086;2023-03-14T01:38:42;95967.28;;;9.38;94.70
71938;BME280;59810;48.800;9.086;2023-03-14T01:41:15;95956.72;;;9.42;93.57
71938;BME280;59810;48.800;9.086;2023-03-14T01:43:43;95942.50;;;9.36;94.25
71938;BME280;59810;48.800;9.086;2023-03-14T01:48:55;95919.41;;;9.30;94.39
71938;BME280;59810;48.800;9.086;2023-03-14T01:53:51;95939.88;;;9.31;93.37
71938;BME280;59810;48.800;9.086;2023-03-14T01:56:18;95939.88;;;9.31;92.90
71938;BME280;59810;48.800;9.086;2023-03-14T01:58:47;95931.28;;;9.29;92.09
71938;BME280;59810;48.800;9.086;2023-03-14T02:01:18;95927.72;;;9.33;91.61
71938;BME280;59810;48.800;9.086;2023-03-14T02:03:53;95943.13;;;9.28;92.78
71938;BME280;59810;48.800;9.086;2023-03-14T02:06:25;95939.91;;;9.26;91.93
71938;BME280;59810;48.800;9.086;2023-03-14T02:08:51;95939.34;;;9.29;90.67
71938;BME280;59810;48.800;9.086;2023-03-14T02:11:19;95939.88;;;9.31;90.17
71938;BME280;59810;48.800;9.086;2023-03-14T02:13:50;95933.97;;;9.29;90.55
71938;BME280;59810;48.800;9.086;2023-03-14T02:16:15;95929.66;;;9.28;89.88
71938;BME280;59810;48.800;9.086;2023-03-14T02:18:41;95928.28;;;9.30;89.89
71938;BME280;59810;48.800;9.086;2023-03-14T02:21:20;95926.97;;;9.28;90.13
71938;BME280;59810;48.800;9.086;2023-03-14T02:29:24;95897.59;;;9.31;89.28
71938;BME280;59810;48.800;9.086;2023-03-14T02:31:53;95893.00;;;9.32;89.11
71938;BME280;59810;48.800;9.086;2023-03-14T02:34:18;95903.78;;;9.32;88.92
71938;BME280;59810;48.800;9.086;2023-03-14T02:36:44;95892.72;;;9.33;89.84
71938;BME280;59810;48.800;9.086;2023-03-14T02:39:37;95895.75;;;9.27;90.20
71938;BME280;59810;48.800;9.086;2023-03-14T02:42:03;95888.19;;;9.29;90.18
71938;BME280;59810;48.800;9.086;2023-03-14T02:44:29;95883.88;;;9.28;89.90
71938;BME280;59810;48.800;9.086;2023-03-14T02:46:54;95871.78;;;9.25;89.96
71938;BME280;59810;48.800;9.086;2023-03-14T02:49:20;95861.81;;;9.26;89.47
71938;BME280;59810;48.800;9.086;2023-03-14T02:51:45;95875.00;;;9.27;90.04
71938;BME280;59810;48.800;9.086;2023-03-14T02:54:15;95858.09;;;9.22;89.60
71938;BME280;59810;48.800;9.086;2023-03-14T02:56:43;95853.81;;;9.21;89.34
71938;BME280;59810;48.800;9.086;2023-03-14T02:59:08;95860.50;;;9.23;89.09
71938;BME280;59810;48.800;9.086;2023-03-14T03:01:34;95845.16;;;9.24;88.99
71938;BME280;59810;48.800;9.086;2023-03-14T03:03:59;95831.97;;;9.22;89.26
71938;BME280;59810;48.800;9.086;2023-03-14T03:06:27;95821.50;;;9.21;88.84
71938;BME280;59810;48.800;9.086;2023-03-14T03:08:55;95827.44;;;9.18;88.21
71938;BME280;59810;48.800;9.086;2023-03-14T03:11:20;95812.38;;;9.17;88.04
71938;BME280;59810;48.800;9.086;2023-03-14T03:13:46;95812.63;;;9.20;86.93
71938;BME280;59810;48.800;9.086;2023-03-14T03:16:11;95802.66;;;9.21;86.18
71938;BME280;59810;48.800;9.086;2023-03-14T03:18:39;95790.78;;;9.22;85.73
71938;BME280;59810;48.800;9.086;2023-03-14T03:21:07;95788.16;;;9.17;85.41
71938;BME280;59810;48.800;9.086;2023-03-14T03:23:34;95780.66;;;9.14;85.31
71938;BME280;59810;48.800;9.086;2023-03-14T03:26:00;95794.13;;;9.14;85.68
71938;BME280;59810;48.800;9.086;2023-03-14T03:28:27;95784.72;;;9.11;84.94
71938;BME280;59810;48.800;9.086;2023-03-14T03:30:52;95788.47;;;9.10;84.59
71938;BME280;59810;48.800;9.086;2023-03-14T03:33:18;95792.22;;;9.14;83.97
71938;BME280;59810;48.800;9.086;2023-03-14T03:35:48;95781.16;;;9.16;84.22
71938;BME280;59810;48.800;9.086;2023-03-14T03:38:15;95774.50;;;9.08;83.94
71938;BME280;59810;48.800;9.086;2023-03-14T03:40:41;95771.28;;;9.06;83.88
71938;BME280;59810;48.800;9.086;2023-03-14T03:43:06;95770.25;;;9.02;84.26
71938;BME280;59810;48.800;9.086;2023-03-14T03:45:34;95766.81;;;8.96;83.95
71938;BME280;59810;48.800;9.086;2023-03-14T03:47:59;95762.59;;;8.90;84.06
71938;BME280;59810;48.800;9.086;2023-03-14T03:50:25;95760.19;;;8.89;83.75
71938;BME280;59810;48.800;9.086;2023-03-14T03:52:50;95765.91;;;8.82;84.15
71938;BME280;59810;48.800;9.086;2023-03-14T03:55:17;95757.31;;;8.80;83.58
71938;BME280;59810;48.800;9.086;2023-03-14T03:57:43;95756.47;;;8.85;82.91
71938;BME280;59810;48.800;9.086;2023-03-14T04:00:10;95763.16;;;8.87;82.59
71938;BME280;59810;48.800;9.086;2023-03-14T04:02:37;95760.75;;;8.86;82.38
71938;BME280;59810;48.800;9.086;2023-03-14T04:05:02;95749.75;;;8.82;82.34
71938;BME280;59810;48.800;9.086;2023-03-14T04:07:30;95749.19;;;8.85;81.42
71938;BME280;59810;48.800;9.086;2023-03-14T04:09:56;95747.59;;;8.84;81.42
71938;BME280;59810;48.800;9.086;2023-03-14T04:12:21;95741.41;;;8.84;81.09
71938;BME280;59810;48.800;9.086;2023-03-14T04:14:46;95751.13;;;8.80;81.40
71938;BME280;59810;48.800;9.086;2023-03-14T04:17:12;95753.03;;;8.79;81.15
71938;BME280;59810;48.800;9.086;2023-03-14T04:19:37;95754.66;;;8.75;81.25
71938;BME280;59810;48.800;9.086;2023-03-14T04:22:02;95748.53;;;8.69;81.27
71938;BME280;59810;48.800;9.086;2023-03-14T04:24:28;95750.41;;;8.69;81.25
71938;BME280;59810;48.800;9.086;2023-03-14T04:26:53;95751.50;;;8.68;81.16
71938;BME280;59810;48.800;9.086;2023-03-14T04:29:21;95753.38;;;8.67;80.87
71938;BME280;59810;48.800;9.086;2023-03-14T04:31:46;95745.25;;;8.72;80.09
71938;BME280;59810;48.800;9.086;2023-03-14T04:34:12;95746.88;;;8.73;80.15
71938;BME280;59810;48.800;9.086;2023-03-14T04:36:37;95743.88;;;8.75;79.84
71938;BME280;59810;48.800;9.086;2023-03-14T04:39:02;95745.78;;;8.74;79.97
71938;BME280;59810;48.800;9.086;2023-03-14T04:41:29;95743.34;;;8.78;79.36
71938;BME280;59810;48.800;9.086;2023-03-14T04:43:54;95740.13;;;8.76;79.75
71938;BME280;59810;48.800;9.086;2023-03-14T04:46:19;95735.31;;;8.73;79.45
71938;BME280;59810;48.800;9.086;2023-03-14T04:48:45;95720.81;;;8.69;79.18
71938;BME280;59810;48.800;9.086;2023-03-14T04:51:10;95727.56;;;8.66;79.72
71938;BME280;59810;48.800;9.086;2023-03-14T04:53:36;95721.38;;;8.66;79.41
71938;BME280;59810;48.800;9.086;2023-03-14T04:56:02;95724.09;;;8.66;79.86
71938;BME280;59810;48.800;9.086;2023-03-14T04:58:28;95718.97;;;8.64;79.77
71938;BME280;59810;48.800;9.086;2023-03-14T05:00:53;95712.53;;;8.65;78.96
71938;BME280;59810;48.800;9.086;2023-03-14T05:03:19;95711.72;;;8.65;79.52
71938;BME280;59810;48.800;9.086;2023-03-14T05:05:45;95699.63;;;8.62;79.26
71938;BME280;59810;48.800;9.086;2023-03-14T05:08:11;95705.31;;;8.61;79.01
71938;BME280;59810;48.800;9.086;2023-03-14T05:10:38;95694.53;;;8.61;78.37
71938;BME280;59810;48.800;9.086;2023-03-14T05:13:07;95697.47;;;8.64;78.66
71938;BME280;59810;48.800;9.086;2023-03-14T05:15:32;95706.91;;;8.62;78.51
71938;BME280;59810;48.800;9.086;2023-03-14T05:17:57;95711.94;;;8.68;78.33
71938;BME280;59810;48.800;9.086;2023-03-14T05:20:23;95701.75;;;8.65;78.23
71938;BME280;59810;48.800;9.086;2023-03-14T05:22:50;95703.41;;;8.61;78.80
71938;BME280;59810;48.800;9.086;2023-03-14T05:25:16;95687.78;;;8.63;78.36
71938;BME280;59810;48.800;9.086;2023-03-14T05:27:41;95696.44;;;8.60;78.41
71938;BME280;59810;48.800;9.086;2023-03-14T05:30:10;95703.94;;;8.63;78.21
71938;BME280;59810;48.800;9.086;2023-03-14T05:32:35;95687.78;;;8.63;78.07
71938;BME280;59810;48.800;9.086;2023-03-14T05:35:03;95687.50;;;8.65;77.81
71938;BME280;59810;48.800;9.086;2023-03-14T05:37:29;95681.03;;;8.66;77.94
71938;BME280;59810;48.800;9.086;2023-03-14T05:39:56;95672.47;;;8.64;78.02
71938;BME280;59810;48.800;9.086;2023-03-14T05:42:22;95678.34;;;8.66;78.07
71938;BME280;59810;48.800;9.086;2023-03-14T05:44:49;95674.06;;;8.65;77.48
71938;BME280;59810;48.800;9.086;2023-03-14T05:47:15;95677.59;;;8.60;78.29
71938;BME280;59810;48.800;9.086;2023-03-14T05:49:40;95672.00;;;8.57;78.64
71938;BME280;59810;48.800;9.086;2023-03-14T05:52:05;95671.19;;;8.56;78.56
71938;BME280;59810;48.800;9.086;2023-03-14T05:54:31;95687.34;;;8.56;77.99
71938;BME280;59810;48.800;9.086;2023-03-14T05:56:58;95671.72;;;8.58;77.88
71938;BME280;59810;48.800;9.086;2023-03-14T05:59:24;95679.50;;;8.60;78.35
71938;BME280;59810;48.800;9.086;2023-03-14T06:01:49;95669.03;;;8.58;78.08
71938;BME280;59810;48.800;9.086;2023-03-14T06:04:14;95678.19;;;8.57;78.44
71938;BME280;59810;48.800;9.086;2023-03-14T06:06:40;95669.31;;;8.57;77.76
71938;BME280;59810;48.800;9.086;2023-03-14T06:09:05;95676.56;;;8.56;78.58
71938;BME280;59810;48.800;9.086;2023-03-14T06:11:31;95673.88;;;8.56;77.88
71938;BME280;59810;48.800;9.086;2023-03-14T06:13:56;95675.78;;;8.56;77.57
71938;BME280;59810;48.800;9.086;2023-03-14T06:16:21;95679.84;;;8.53;78.21
71938;BME280;59810;48.800;9.086;2023-03-14T06:18:47;95677.16;;;8.53;78.10
71938;BME280;59810;48.800;9.086;2023-03-14T06:21:14;95679.91;;;8.48;78.94
71938;BME280;59810;48.800;9.086;2023-03-14T06:23:39;95690.38;;;8.50;78.27
71938;BME280;59810;48.800;9.086;2023-03-14T06:26:05;95677.50;;;8.47;77.99
71938;BME280;59810;48.800;9.086;2023-03-14T06:28:31;95682.59;;;8.43;78.87
71938;BME280;59810;48.800;9.086;2023-03-14T06:30:56;95684.78;;;8.41;78.65
71938;BME280;59810;48.800;9.086;2023-03-14T06:33:24;95696.56;;;8.45;78.05
71938;BME280;59810;48.800;9.086;2023-03-14T06:35:49;95688.50;;;8.45;78.45
71938;BME280;59810;48.800;9.086;2023-03-14T06:38:14;95688.28;;;8.41;78.59
71938;BME280;59810;48.800;9.086;2023-03-14T06:40:40;95688.25;;;8.47;78.05
71938;BME280;59810;48.800;9.086;2023-03-14T06:43:05;95680.69;;;8.49;77.69
71938;BME280;59810;48.800;9.086;2023-03-14T06:45:30;95679.63;;;8.45;78.27
71938;BME280;59810;48.800;9.086;2023-03-14T06:47:56;95680.69;;;8.49;77.58
71938;BME280;59810;48.800;9.086;2023-03-14T06:50:21;95680.44;;;8.45;78.40
71938;BME280;59810;48.800;9.086;2023-03-14T06:52:47;95683.97;;;8.46;77.19
71938;BME280;59810;48.800;9.086;2023-03-14T06:55:16;95688.25;;;8.47;77.59
71938;BME280;59810;48.800;9.086;2023-03-14T06:57:42;95688.94;;;8.57;77.05
71938;BME280;59810;48.800;9.086;2023-03-14T07:00:10;95686.53;;;8.56;77.94
71938;BME280;59810;48.800;9.086;2023-03-14T07:02:35;95678.75;;;8.54;77.71
71938;BME280;59810;48.800;9.086;2023-03-14T07:05:03;95694.03;;;8.59;77.69
71938;BME280;59810;48.800;9.086;2023-03-14T07:07:29;95688.81;;;8.67;76.46
71938;BME280;59810;48.800;9.086;2023-03-14T07:09:54;95689.06;;;8.71;76.81
71938;BME280;59810;48.800;9.086;2023-03-14T07:12:19;95691.94;;;8.80;75.97
71938;BME280;59810;48.800;9.086;2023-03-14T07:14:45;95687.81;;;8.87;76.08
71938;BME280;59810;48.800;9.086;2023-03-14T07:17:10;95703.84;;;8.97;75.83
71938;BME280;59810;48.800;9.086;2023-03-14T07:19:38;95695.09;;;9.11;75.33
71938;BME280;59810;48.800;9.086;2023-03-14T07:22:06;95704.63;;;9.22;75.19
71938;BME280;59810;48.800;9.086;2023-03-14T07:24:32;95710.97;;;9.31;74.12
71938;BME280;59810;48.800;9.086;2023-03-14T07:26:57;95709.81;;;9.37;74.33
71938;BME280;59810;48.800;9.086;2023-03-14T07:29:27;95708.03;;;9.51;72.39
71938;BME280;59810;48.800;9.086;2023-03-14T07:31:52;95701.91;;;9.64;72.80
71938;BME280;59810;48.800;9.086;2023-03-14T07:34:18;95705.81;;;9.72;72.85
71938;BME280;59810;48.800;9.086;2023-03-14T07:36:44;95699.50;;;9.82;71.52
71938;BME280;59810;48.800;9.086;2023-03-14T07:39:09;95720.31;;;9.95;71.84
71938;BME280;59810;48.800;9.086;2023-03-14T07:41:35;95717.53;;;10.00;71.30
71938;BME280;59810;48.800;9.086;2023-03-14T07:44:00;95707.13;;;10.12;70.84
71938;BME280;59810;48.800;9.086;2023-03-14T07:46:26;95704.59;;;10.21;71.16
71938;BME280;59810;48.800;9.086;2023-03-14T07:48:51;95706.50;;;10.34;69.82
71938;BME280;59810;48.800;9.086;2023-03-14T07:51:16;95720.81;;;10.35;69.99
71938;BME280;59810;48.800;9.086;2023-03-14T07:53:44;95720.28;;;10.33;71.08
71938;BME280;59810;48.800;9.086;2023-03-14T07:56:11;95720.28;;;10.33;70.96
71938;BME280;59810;48.800;9.086;2023-03-14T07:58:40;95717.16;;;10.44;70.51
71938;BME280;59810;48.800;9.086;2023-03-14T08:01:05;95718.25;;;10.43;69.78
71938;BME280;59810;48.800;9.086;2023-03-14T08:03:31;95720.44;;;10.41;70.46
71938;BME280;59810;48.800;9.086;2023-03-14T08:05:58;95716.06;;;10.45;69.81
71938;BME280;59810;48.800;9.086;2023-03-14T08:08:24;95716.25;;;10.49;70.02
71938;BME280;59810;48.800;9.086;2023-03-14T08:10:51;95716.16;;;10.54;70.03
71938;BME280;59810;48.800;9.086;2023-03-14T08:13:17;95712.09;;;10.70;69.32
71938;BME280;59810;48.800;9.086;2023-03-14T08:15:42;95712.72;;;10.81;68.46
71938;BME280;59810;48.800;9.086;2023-03-14T08:18:07;95719.22;;;10.94;68.27
71938;BME280;59810;48.800;9.086;2023-03-14T08:20:33;95705.94;;;11.11;68.16
71938;BME280;59810;48.800;9.086;2023-03-14T08:23:00;95703.63;;;11.18;66.54
71938;BME280;59810;48.800;9.086;2023-03-14T08:25:26;95691.72;;;11.19;65.96
71938;BME280;59810;48.800;9.086;2023-03-14T08:27:54;95709.53;;;11.20;66.35
71938;BME280;59810;48.800;9.086;2023-03-14T08:30:21;95704.75;;;11.17;65.17
71938;BME280;59810;48.800;9.086;2023-03-14T08:32:46;95711.25;;;11.16;64.06
71938;BME280;59810;48.800;9.086;2023-03-14T08:35:12;95696.75;;;11.12;65.07
71938;BME280;59810;48.800;9.086;2023-03-14T08:37:38;95701.34;;;11.11;65.06
71938;BME280;59810;48.800;9.086;2023-03-14T08:40:05;95706.63;;;11.03;65.51
71938;BME280;59810;48.800;9.086;2023-03-14T08:42:32;95707.41;;;11.03;65.23
71938;BME280;59810;48.800;9.086;2023-03-14T08:44:58;95718.53;;;11.02;64.85
71938;BME280;59810;48.800;9.086;2023-03-14T08:47:26;95708.75;;;11.06;64.58
71938;BME280;59810;48.800;9.086;2023-03-14T08:49:51;95705.22;;;11.05;64.77
71938;BME280;59810;48.800;9.086;2023-03-14T08:52:31;95706.44;;;11.13;64.96
71938;BME280;59810;48.800;9.086;2023-03-14T08:54:57;95710.03;;;11.22;64.07
71938;BME280;59810;48.800;9.086;2023-03-14T08:57:26;95706.00;;;11.33;63.74
71938;BME280;59810;48.800;9.086;2023-03-14T08:59:57;95723.53;;;11.36;64.06
71938;BME280;59810;48.800;9.086;2023-03-14T09:02:25;95735.44;;;11.48;63.08
71938;BME280;59810;48.800;9.086;2023-03-14T09:04:51;95727.63;;;11.47;63.16
71938;BME280;59810;48.800;9.086;2023-03-14T09:07:17;95724.28;;;11.64;63.16
71938;BME280;59810;48.800;9.086;2023-03-14T09:09:43;95749.72;;;11.63;63.37
71938;BME280;59810;48.800;9.086;2023-03-14T09:12:08;95759.94;;;11.66;63.48
71938;BME280;59810;48.800;9.086;2023-03-14T09:14:36;95762.63;;;11.66;63.90
71938;BME280;59810;48.800;9.086;2023-03-14T09:17:02;95767.75;;;11.53;64.75
71938;BME280;59810;48.800;9.086;2023-03-14T09:19:28;95791.25;;;11.67;65.57
71938;BME280;59810;48.800;9.086;2023-03-14T09:21:53;95776.75;;;11.63;65.54
71938;BME280;59810;48.800;9.086;2023-03-14T09:24:19;95783.28;;;11.48;66.21
71938;BME280;59810;48.800;9.086;2023-03-14T09:26:47;95784.69;;;11.45;66.22
71938;BME280;59810;48.800;9.086;2023-03-14T09:29:12;95787.09;;;11.47;67.46
71938;BME280;59810;48.800;9.086;2023-03-14T09:31:40;95783.97;;;11.53;66.42
71938;BME280;59810;48.800;9.086;2023-03-14T09:34:05;95785.06;;;11.52;66.19
71938;BME280;59810;48.800;9.086;2023-03-14T09:36:31;95792.88;;;11.54;66.41
71938;BME280;59810;48.800;9.086;2023-03-14T09:38:56;95803.00;;;11.48;66.90
71938;BME280;59810;48.800;9.086;2023-03-14T09:41:25;95803.59;;;11.45;66.66
71938;BME280;59810;48.800;9.086;2023-03-14T09:44:24;95804.09;;;11.47;65.68
71938;BME280;59810;48.800;9.086;2023-03-14T09:46:52;95809.81;;;11.46;66.29
71938;BME280;59810;48.800;9.086;2023-03-14T09:49:25;95802.81;;;11.45;65.38
71938;BME280;59810;48.800;9.086;2023-03-14T09:51:54;95800.91;;;11.45;65.87
71938;BME280;59810;48.800;9.086;2023-03-14T09:54:41;95800.28;;;11.48;65.24
71938;BME280;59810;48.800;9.086;2023-03-14T09:57:13;95797.19;;;11.55;65.44
71938;BME280;59810;48.800;9.086;2023-03-14T09:59:43;95796.38;;;11.54;64.82
71938;BME280;59810;48.800;9.086;2023-03-14T10:02:28;95780.28;;;11.49;65.71
71938;BME280;59810;48.800;9.086;2023-03-14T10:04:56;95771.28;;;11.40;64.88
71938;BME280;59810;48.800;9.086;2023-03-14T10:07:28;95777.19;;;11.42;65.58
71938;BME280;59810;48.800;9.086;2023-03-14T10:09:54;95747.16;;;11.44;64.75
71938;BME280;59810;48.800;9.086;2023-03-14T10:12:33;95764.38;;;11.48;65.24
71938;BME280;59810;48.800;9.086;2023-03-14T10:15:11;95761.63;;;11.62;64.61
71938;BME280;59810;48.800;9.086;2023-03-14T10:17:43;95767.53;;;11.77;63.37
71938;BME280;59810;48.800;9.086;2023-03-14T10:20:35;95757.13;;;11.84;63.29
71938;BME280;59810;48.800;9.086;2023-03-14T10:23:22;95765.13;;;12.03;62.62
71938;BME280;59810;48.800;9.086;2023-03-14T10:26:14;95752.47;;;12.12;61.75
71938;BME280;59810;48.800;9.086;2023-03-14T10:28:45;95763.59;;;12.33;60.93
71938;BME280;59810;48.800;9.086;2023-03-14T10:31:14;95758.59;;;12.27;61.47
71938;BME280;59810;48.800;9.086;2023-03-14T10:33:40;95749.34;;;12.41;61.72
71938;BME280;59810;48.800;9.086;2023-03-14T10:38:35;95742.03;;;12.42;61.24
71938;BME280;59810;48.800;9.086;2023-03-14T10:41:01;95754.06;;;12.58;60.35
71938;BME280;59810;48.800;9.086;2023-03-14T10:43:34;95763.13;;;12.76;60.01
71938;BME280;59810;48.800;9.086;2023-03-14T10:46:13;95758.56;;;12.94;59.80
71938;BME280;59810;48.800;9.086;2023-03-14T10:48:39;95773.38;;;12.88;59.62
71938;BME280;59810;48.800;9.086;2023-03-14T10:51:27;95775.78;;;12.67;59.74
71938;BME280;59810;48.800;9.086;2023-03-14T10:54:13;95782.75;;;12.37;60.93
71938;BME280;59810;48.800;9.086;2023-03-14T10:56:38;95777.41;;;12.09;62.26
71938;BME280;59810;48.800;9.086;2023-03-14T10:59:11;95781.94;;;12.00;63.77
71938;BME280;59810;48.800;9.086;2023-03-14T11:01:59;95792.97;;;11.76;64.98
71938;BME280;59810;48.800;9.086;2023-03-14T11:07:22;95794.38;;;11.60;65.92
71938;BME280;59810;48.800;9.086;2023-03-14T11:10:10;95801.09;;;11.49;66.42
71938;BME280;59810;48.800;9.086;2023-03-14T11:13:00;95816.19;;;11.36;67.39
71938;BME280;59810;48.800;9.086;2023-03-14T11:23:55;95814.34;;;10.72;73.17
71938;BME280;59810;48.800;9.086;2023-03-14T11:29:20;95813.53;;;10.39;76.18
71938;BME280;59810;48.800;9.086;2023-03-14T11:31:50;95812.31;;;10.31;75.61
71938;BME280;59810;48.800;9.086;2023-03-14T11:37:35;95803.84;;;10.38;74.41
71938;BME280;59810;48.800;9.086;2023-03-14T11:40:18;95819.72;;;10.39;74.92
71938;BME280;59810;48.800;9.086;2023-03-14T11:42:49;95819.47;;;10.41;74.73
71938;BME280;59810;48.800;9.086;2023-03-14T11:45:25;95830.25;;;10.41;75.06
71938;BME280;59810;48.800;9.086;2023-03-14T11:48:41;95843.78;;;10.36;75.34
71938;BME280;59810;48.800;9.086;2023-03-14T11:51:24;95847.56;;;10.16;77.54
71938;BME280;59810;48.800;9.086;2023-03-14T11:53:58;95834.56;;;9.99;78.30
71938;BME280;59810;48.800;9.086;2023-03-14T11:56:31;95839.72;;;9.95;79.13
71938;BME280;59810;48.800;9.086;2023-03-14T11:59:21;95845.22;;;10.09;81.30
71938;BME280;59810;48.800;9.086;2023-03-14T12:04:34;95862.31;;;10.61;77.78
71938;BME280;59810;48.800;9.086;2023-03-14T12:07:15;95883.59;;;10.63;77.33
71938;BME280;59810;48.800;9.086;2023-03-14T12:09:45;95877.91;;;10.64;77.13
71938;BME280;59810;48.800;9.086;2023-03-14T12:12:16;95888.94;;;10.49;79.02
71938;BME280;59810;48.800;9.086;2023-03-14T12:14:53;95899.13;;;10.33;80.40
71938;BME280;59810;48.800;9.086;2023-03-14T12:17:23;95906.50;;;10.27;79.31
71938;BME280;59810;48.800;9.086;2023-03-14T12:20:05;95923.69;;;10.08;77.42
71938;BME280;59810;48.800;9.086;2023-03-14T12:35:42;95993.38;;;10.67;65.97
71938;BME280;59810;48.800;9.086;2023-03-14T12:38:37;96034.66;;;10.49;64.31
71938;BME280;59810;48.800;9.086;2023-03-14T12:43:41;96031.13;;;10.48;63.01
71938;BME280;59810;48.800;9.086;2023-03-14T12:48:45;96045.09;;;10.55;58.94
71938;BME280;59810;48.800;9.086;2023-03-14T12:59:36;96054.25;;;10.02;56.45
71938;BME280;59810;48.800;9.086;2023-03-14T13:10:03;96112.22;;;9.31;56.56
71938;BME280;59810;48.800;9.086;2023-03-14T13:13:08;96149.44;;;9.24;56.47
71938;BME280;59810;48.800;9.086;2023-03-14T13:15:38;96148.38;;;9.20;56.31
71938;BME280;59810;48.800;9.086;2023-03-14T13:18:17;96138.41;;;9.20;54.46
71938;BME280;59810;48.800;9.086;2023-03-14T13:23:29;96142.50;;;9.08;54.13
71938;BME280;59810;48.800;9.086;2023-03-14T13:25:55;96173.22;;;9.01;52.77
71938;BME280;59810;48.800;9.086;2023-03-14T13:28:21;96176.50;;;8.93;52.54
71938;BME280;59810;48.800;9.086;2023-03-14T13:30:50;96176.47;;;8.98;52.94
71938;BME280;59810;48.800;9.086;2023-03-14T13:33:21;96236.00;;;8.87;51.99
71938;BME280;59810;48.800;9.086;2023-03-14T13:36:04;96200.75;;;8.88;52.84
71938;BME280;59810;48.800;9.086;2023-03-14T13:38:37;96202.91;;;8.81;53.17
71938;BME280;59810;48.800;9.086;2023-03-14T13:41:05;96206.13;;;8.88;53.29
71938;BME280;59810;48.800;9.086;2023-03-14T13:43:40;96223.88;;;8.89;52.72
71938;BME280;59810;48.800;9.086;2023-03-14T13:46:21;96219.78;;;9.07;53.11
71938;BME280;59810;48.800;9.086;2023-03-14T13:48:54;96213.50;;;9.27;50.62
71938;BME280;59810;48.800;9.086;2023-03-14T13:51:21;96236.41;;;9.24;50.05
71938;BME280;59810;48.800;9.086;2023-03-14T13:53:51;96248.84;;;9.05;50.67
71938;BME280;59810;48.800;9.086;2023-03-14T13:56:19;96269.06;;;9.02;51.40
71938;BME280;59810;48.800;9.086;2023-03-14T13:58:44;96265.28;;;9.03;50.99
71938;BME280;59810;48.800;9.086;2023-03-14T14:01:19;96270.13;;;9.01;50.78
71938;BME280;59810;48.800;9.086;2023-03-14T14:03:49;96288.44;;;8.99;47.69
71938;BME280;59810;48.800;9.086;2023-03-14T14:08:51;96327.25;;;8.83;46.11
71938;BME280;59810;48.800;9.086;2023-03-14T14:14:32;96334.22;;;8.69;45.50
71938;BME280;59810;48.800;9.086;2023-03-14T14:17:04;96325.63;;;8.67;45.86
71938;BME280;59810;48.800;9.086;2023-03-14T14:19:32;96354.97;;;8.53;46.42
71938;BME280;59810;48.800;9.086;2023-03-14T14:21:59;96367.88;;;8.51;47.30
71938;BME280;59810;48.800;9.086;2023-03-14T14:24:30;96347.69;;;8.49;46.95
71938;BME280;59810;48.800;9.086;2023-03-14T14:27:07;96370.56;;;8.46;46.73
71938;BME280;59810;48.800;9.086;2023-03-14T14:29:33;96374.88;;;8.47;46.82
71938;BME280;59810;48.800;9.086;2023-03-14T14:37:18;96379.44;;;8.57;48.25